Sparks, Texas
Current Conditions -  °F | °C
As of 2:58 AM on Monday 24 Nov 2014 (Local Time) from KGRK Reporting Station
Clear Clear  
Wind Chill: 43°   Ceiling: Unl
Heat Index: 47°   Visibility: 10mi
Dew Point: 36°   Wind: 9mph
Humidity: 65%   Direction: 300°WNW
Pressure: 29.93"   Gusts: NA
Location:  30.8644°N, 97.3623°W
Report Text: KGRK 240858Z AUTO 30008KT 10SM CLR 09/02 A2993 RMK AO2 SLP131 T00850023 52018
Loading
Personal Weather Stations






























Interactive Weather Map New forecast layout! Learn more

10-Day Weather Forecast

Advertisements
Track Severe Weather on mobile